sensor_id;sensor_type;location;lat;lon;timestamp;P1;durP1;ratioP1;P2;durP2;ratioP2
20185;SDS011;10252;48.792;8.582;2022-08-24T00:02:11;4.20;;;3.58;;
20185;SDS011;10252;48.792;8.582;2022-08-24T00:07:12;4.22;;;3.63;;
20185;SDS011;10252;48.792;8.582;2022-08-24T00:12:14;5.45;;;3.97;;
20185;SDS011;10252;48.792;8.582;2022-08-24T00:17:16;5.35;;;4.25;;
20185;SDS011;10252;48.792;8.582;2022-08-24T00:22:19;5.03;;;3.88;;
20185;SDS011;10252;48.792;8.582;2022-08-24T00:27:20;5.10;;;4.60;;
20185;SDS011;10252;48.792;8.582;2022-08-24T00:32:22;4.70;;;4.20;;
20185;SDS011;10252;48.792;8.582;2022-08-24T00:37:23;4.43;;;4.03;;
20185;SDS011;10252;48.792;8.582;2022-08-24T00:42:24;4.63;;;4.20;;
20185;SDS011;10252;48.792;8.582;2022-08-24T00:47:26;5.75;;;4.38;;
20185;SDS011;10252;48.792;8.582;2022-08-24T00:52:35;5.30;;;4.50;;
20185;SDS011;10252;48.792;8.582;2022-08-24T00:57:40;5.47;;;4.57;;
20185;SDS011;10252;48.792;8.582;2022-08-24T01:02:42;4.75;;;3.92;;
20185;SDS011;10252;48.792;8.582;2022-08-24T01:07:44;4.28;;;3.97;;
20185;SDS011;10252;48.792;8.582;2022-08-24T01:12:50;4.43;;;4.03;;
20185;SDS011;10252;48.792;8.582;2022-08-24T01:17:52;4.85;;;3.97;;
20185;SDS011;10252;48.792;8.582;2022-08-24T01:28:24;5.22;;;4.10;;
20185;SDS011;10252;48.792;8.582;2022-08-24T01:33:27;4.80;;;4.28;;
20185;SDS011;10252;48.792;8.582;2022-08-24T01:38:29;4.50;;;4.18;;
20185;SDS011;10252;48.792;8.582;2022-08-24T01:43:30;4.38;;;3.78;;
20185;SDS011;10252;48.792;8.582;2022-08-24T01:48:32;5.00;;;4.60;;
20185;SDS011;10252;48.792;8.582;2022-08-24T01:53:33;4.93;;;4.40;;
20185;SDS011;10252;48.792;8.582;2022-08-24T01:58:35;4.93;;;4.20;;
20185;SDS011;10252;48.792;8.582;2022-08-24T02:03:36;5.28;;;4.78;;
20185;SDS011;10252;48.792;8.582;2022-08-24T02:08:37;5.40;;;4.90;;
20185;SDS011;10252;48.792;8.582;2022-08-24T02:13:39;5.65;;;4.88;;
20185;SDS011;10252;48.792;8.582;2022-08-24T02:18:41;4.70;;;4.28;;
20185;SDS011;10252;48.792;8.582;2022-08-24T02:23:42;4.97;;;4.55;;
20185;SDS011;10252;48.792;8.582;2022-08-24T02:28:44;5.10;;;4.60;;
20185;SDS011;10252;48.792;8.582;2022-08-24T02:33:45;5.18;;;4.30;;
20185;SDS011;10252;48.792;8.582;2022-08-24T02:38:46;5.07;;;4.47;;
20185;SDS011;10252;48.792;8.582;2022-08-24T02:43:52;6.28;;;4.70;;
20185;SDS011;10252;48.792;8.582;2022-08-24T02:48:54;5.03;;;4.53;;
20185;SDS011;10252;48.792;8.582;2022-08-24T02:53:56;6.18;;;4.47;;
20185;SDS011;10252;48.792;8.582;2022-08-24T02:58:59;6.53;;;4.68;;
20185;SDS011;10252;48.792;8.582;2022-08-24T03:04:01;6.45;;;4.82;;
20185;SDS011;10252;48.792;8.582;2022-08-24T03:09:03;5.80;;;5.07;;
20185;SDS011;10252;48.792;8.582;2022-08-24T03:14:05;5.82;;;4.72;;
20185;SDS011;10252;48.792;8.582;2022-08-24T03:19:07;5.05;;;4.55;;
20185;SDS011;10252;48.792;8.582;2022-08-24T03:24:10;5.10;;;4.70;;
20185;SDS011;10252;48.792;8.582;2022-08-24T03:29:12;7.15;;;4.47;;
20185;SDS011;10252;48.792;8.582;2022-08-24T03:34:14;5.28;;;4.78;;
20185;SDS011;10252;48.792;8.582;2022-08-24T03:39:15;5.68;;;5.13;;
20185;SDS011;10252;48.792;8.582;2022-08-24T03:44:17;6.57;;;4.82;;
20185;SDS011;10252;48.792;8.582;2022-08-24T03:49:19;6.20;;;5.53;;
20185;SDS011;10252;48.792;8.582;2022-08-24T03:54:20;6.03;;;5.43;;
20185;SDS011;10252;48.792;8.582;2022-08-24T03:59:21;5.70;;;5.20;;
20185;SDS011;10252;48.792;8.582;2022-08-24T04:04:26;6.32;;;5.60;;
20185;SDS011;10252;48.792;8.582;2022-08-24T04:09:28;6.65;;;5.80;;
20185;SDS011;10252;48.792;8.582;2022-08-24T04:14:30;6.07;;;5.47;;
20185;SDS011;10252;48.792;8.582;2022-08-24T04:19:37;5.72;;;5.20;;
20185;SDS011;10252;48.792;8.582;2022-08-24T04:24:56;7.75;;;5.55;;
20185;SDS011;10252;48.792;8.582;2022-08-24T04:30:00;6.00;;;5.40;;
20185;SDS011;10252;48.792;8.582;2022-08-24T04:35:09;6.47;;;5.32;;
20185;SDS011;10252;48.792;8.582;2022-08-24T04:40:11;7.20;;;5.15;;
20185;SDS011;10252;48.792;8.582;2022-08-24T04:45:18;6.82;;;5.97;;
20185;SDS011;10252;48.792;8.582;2022-08-24T04:50:20;7.32;;;6.10;;
20185;SDS011;10252;48.792;8.582;2022-08-24T04:55:24;6.25;;;5.63;;
20185;SDS011;10252;48.792;8.582;2022-08-24T05:00:25;6.70;;;6.00;;
20185;SDS011;10252;48.792;8.582;2022-08-24T05:05:27;7.28;;;6.20;;
20185;SDS011;10252;48.792;8.582;2022-08-24T05:10:28;5.97;;;5.40;;
20185;SDS011;10252;48.792;8.582;2022-08-24T05:15:29;6.82;;;6.18;;
20185;SDS011;10252;48.792;8.582;2022-08-24T05:20:30;6.63;;;6.03;;
20185;SDS011;10252;48.792;8.582;2022-08-24T05:25:31;6.05;;;5.45;;
20185;SDS011;10252;48.792;8.582;2022-08-24T05:30:33;9.52;;;6.40;;
20185;SDS011;10252;48.792;8.582;2022-08-24T05:35:38;8.70;;;6.32;;
20185;SDS011;10252;48.792;8.582;2022-08-24T05:40:40;6.25;;;5.65;;
20185;SDS011;10252;48.792;8.582;2022-08-24T05:45:41;7.55;;;5.85;;
20185;SDS011;10252;48.792;8.582;2022-08-24T05:50:49;6.28;;;5.70;;
20185;SDS011;10252;48.792;8.582;2022-08-24T05:55:52;6.55;;;5.60;;
20185;SDS011;10252;48.792;8.582;2022-08-24T06:00:53;5.80;;;5.25;;
20185;SDS011;10252;48.792;8.582;2022-08-24T06:05:54;9.40;;;5.95;;
20185;SDS011;10252;48.792;8.582;2022-08-24T06:10:56;7.15;;;5.88;;
20185;SDS011;10252;48.792;8.582;2022-08-24T06:16:07;7.10;;;6.38;;
20185;SDS011;10252;48.792;8.582;2022-08-24T06:21:11;7.68;;;6.40;;
20185;SDS011;10252;48.792;8.582;2022-08-24T06:26:12;6.00;;;5.35;;
20185;SDS011;10252;48.792;8.582;2022-08-24T06:31:36;6.60;;;5.45;;
20185;SDS011;10252;48.792;8.582;2022-08-24T06:36:38;7.80;;;6.18;;
20185;SDS011;10252;48.792;8.582;2022-08-24T06:41:39;6.18;;;5.47;;
20185;SDS011;10252;48.792;8.582;2022-08-24T06:46:44;5.30;;;4.68;;
20185;SDS011;10252;48.792;8.582;2022-08-24T06:51:45;5.55;;;5.03;;
20185;SDS011;10252;48.792;8.582;2022-08-24T06:56:46;5.50;;;5.00;;
20185;SDS011;10252;48.792;8.582;2022-08-24T07:01:48;6.40;;;4.85;;
20185;SDS011;10252;48.792;8.582;2022-08-24T07:06:49;5.75;;;5.25;;
20185;SDS011;10252;48.792;8.582;2022-08-24T07:11:51;5.20;;;4.80;;
20185;SDS011;10252;48.792;8.582;2022-08-24T07:16:52;5.28;;;4.25;;
20185;SDS011;10252;48.792;8.582;2022-08-24T07:21:56;5.25;;;4.18;;
20185;SDS011;10252;48.792;8.582;2022-08-24T07:26:59;4.65;;;3.85;;
20185;SDS011;10252;48.792;8.582;2022-08-24T07:32:00;4.25;;;3.60;;
20185;SDS011;10252;48.792;8.582;2022-08-24T07:37:08;3.45;;;3.08;;
20185;SDS011;10252;48.792;8.582;2022-08-24T07:42:13;3.28;;;2.97;;
20185;SDS011;10252;48.792;8.582;2022-08-24T07:47:14;3.45;;;3.15;;
20185;SDS011;10252;48.792;8.582;2022-08-24T07:52:16;5.18;;;2.65;;
20185;SDS011;10252;48.792;8.582;2022-08-24T07:57:18;3.03;;;2.72;;
20185;SDS011;10252;48.792;8.582;2022-08-24T08:02:20;4.90;;;3.28;;
20185;SDS011;10252;48.792;8.582;2022-08-24T08:07:25;2.67;;;2.45;;
20185;SDS011;10252;48.792;8.582;2022-08-24T08:12:26;3.58;;;2.83;;
20185;SDS011;10252;48.792;8.582;2022-08-24T08:17:29;3.75;;;3.10;;
20185;SDS011;10252;48.792;8.582;2022-08-24T08:22:31;4.55;;;2.47;;
20185;SDS011;10252;48.792;8.582;2022-08-24T08:28:20;3.15;;;2.70;;
20185;SDS011;10252;48.792;8.582;2022-08-24T08:33:21;5.03;;;3.22;;
20185;SDS011;10252;48.792;8.582;2022-08-24T08:38:23;3.60;;;2.30;;
20185;SDS011;10252;48.792;8.582;2022-08-24T08:43:43;5.60;;;2.53;;
20185;SDS011;10252;48.792;8.582;2022-08-24T08:59:01;2.67;;;1.90;;
20185;SDS011;10252;48.792;8.582;2022-08-24T09:25:22;3.55;;;1.88;;
20185;SDS011;10252;48.792;8.582;2022-08-24T09:30:34;4.03;;;2.13;;
20185;SDS011;10252;48.792;8.582;2022-08-24T10:12:04;4.38;;;2.28;;
20185;SDS011;10252;48.792;8.582;2022-08-24T10:38:03;3.45;;;2.15;;
20185;SDS011;10252;48.792;8.582;2022-08-24T10:48:45;3.95;;;2.33;;
20185;SDS011;10252;48.792;8.582;2022-08-24T10:53:51;5.90;;;2.65;;
20185;SDS011;10252;48.792;8.582;2022-08-24T10:59:06;2.63;;;2.25;;
20185;SDS011;10252;48.792;8.582;2022-08-24T11:04:19;2.60;;;2.40;;
20185;SDS011;10252;48.792;8.582;2022-08-24T11:09:26;2.83;;;2.13;;
20185;SDS011;10252;48.792;8.582;2022-08-24T11:14:44;3.92;;;2.30;;
20185;SDS011;10252;48.792;8.582;2022-08-24T11:19:46;2.58;;;2.33;;
20185;SDS011;10252;48.792;8.582;2022-08-24T11:24:48;5.90;;;2.72;;
20185;SDS011;10252;48.792;8.582;2022-08-24T11:29:52;2.28;;;2.05;;
20185;SDS011;10252;48.792;8.582;2022-08-24T11:34:54;4.95;;;2.22;;
20185;SDS011;10252;48.792;8.582;2022-08-24T11:39:55;4.40;;;2.17;;
20185;SDS011;10252;48.792;8.582;2022-08-24T11:45:19;2.63;;;1.95;;
20185;SDS011;10252;48.792;8.582;2022-08-24T11:55:39;3.65;;;2.38;;
20185;SDS011;10252;48.792;8.582;2022-08-24T12:00:55;4.28;;;2.17;;
20185;SDS011;10252;48.792;8.582;2022-08-24T12:05:58;5.10;;;2.22;;
20185;SDS011;10252;48.792;8.582;2022-08-24T12:21:06;7.63;;;2.55;;
20185;SDS011;10252;48.792;8.582;2022-08-24T12:26:16;2.70;;;1.98;;
20185;SDS011;10252;48.792;8.582;2022-08-24T12:36:29;6.05;;;1.92;;
20185;SDS011;10252;48.792;8.582;2022-08-24T12:41:32;3.63;;;1.95;;
20185;SDS011;10252;48.792;8.582;2022-08-24T12:46:35;2.65;;;1.98;;
20185;SDS011;10252;48.792;8.582;2022-08-24T12:56:53;3.50;;;2.00;;
20185;SDS011;10252;48.792;8.582;2022-08-24T13:02:06;2.75;;;1.65;;
20185;SDS011;10252;48.792;8.582;2022-08-24T13:17:41;1.77;;;1.63;;
20185;SDS011;10252;48.792;8.582;2022-08-24T13:28:05;2.03;;;1.70;;
20185;SDS011;10252;48.792;8.582;2022-08-24T13:33:08;3.08;;;1.90;;
20185;SDS011;10252;48.792;8.582;2022-08-24T13:43:27;1.95;;;1.75;;
20185;SDS011;10252;48.792;8.582;2022-08-24T13:53:35;2.38;;;1.80;;
20185;SDS011;10252;48.792;8.582;2022-08-24T13:58:42;3.25;;;2.00;;
20185;SDS011;10252;48.792;8.582;2022-08-24T14:09:27;1.60;;;1.45;;
20185;SDS011;10252;48.792;8.582;2022-08-24T14:14:43;2.17;;;1.98;;
20185;SDS011;10252;48.792;8.582;2022-08-24T14:19:59;1.95;;;1.85;;
20185;SDS011;10252;48.792;8.582;2022-08-24T14:25:18;2.30;;;2.10;;
20185;SDS011;10252;48.792;8.582;2022-08-24T14:46:10;2.55;;;1.45;;
20185;SDS011;10252;48.792;8.582;2022-08-24T14:56:20;3.72;;;2.00;;
20185;SDS011;10252;48.792;8.582;2022-08-24T15:01:41;2.38;;;1.58;;
20185;SDS011;10252;48.792;8.582;2022-08-24T15:06:51;3.35;;;1.83;;
20185;SDS011;10252;48.792;8.582;2022-08-24T15:11:55;3.47;;;1.95;;
20185;SDS011;10252;48.792;8.582;2022-08-24T15:17:01;3.13;;;1.92;;
20185;SDS011;10252;48.792;8.582;2022-08-24T15:32:46;4.68;;;1.80;;
20185;SDS011;10252;48.792;8.582;2022-08-24T15:37:48;2.85;;;2.00;;
20185;SDS011;10252;48.792;8.582;2022-08-24T15:42:49;1.50;;;1.40;;
20185;SDS011;10252;48.792;8.582;2022-08-24T15:47:50;1.95;;;1.55;;
20185;SDS011;10252;48.792;8.582;2022-08-24T15:52:58;3.20;;;1.52;;
20185;SDS011;10252;48.792;8.582;2022-08-24T15:58:42;1.60;;;1.50;;
20185;SDS011;10252;48.792;8.582;2022-08-24T16:08:27;1.58;;;1.48;;
20185;SDS011;10252;48.792;8.582;2022-08-24T16:13:48;4.60;;;1.50;;
20185;SDS011;10252;48.792;8.582;2022-08-24T16:18:53;2.55;;;1.83;;
20185;SDS011;10252;48.792;8.582;2022-08-24T16:29:06;3.55;;;2.17;;
20185;SDS011;10252;48.792;8.582;2022-08-24T16:34:18;2.25;;;2.05;;
20185;SDS011;10252;48.792;8.582;2022-08-24T16:39:20;3.63;;;2.17;;
20185;SDS011;10252;48.792;8.582;2022-08-24T16:44:21;2.33;;;2.03;;
20185;SDS011;10252;48.792;8.582;2022-08-24T16:49:22;2.38;;;1.80;;
20185;SDS011;10252;48.792;8.582;2022-08-24T16:54:24;1.95;;;1.75;;
20185;SDS011;10252;48.792;8.582;2022-08-24T16:59:29;1.92;;;1.80;;
20185;SDS011;10252;48.792;8.582;2022-08-24T17:04:31;4.03;;;1.98;;
20185;SDS011;10252;48.792;8.582;2022-08-24T17:09:33;1.90;;;1.80;;
20185;SDS011;10252;48.792;8.582;2022-08-24T17:14:36;2.40;;;1.90;;
20185;SDS011;10252;48.792;8.582;2022-08-24T17:19:38;2.00;;;1.77;;
20185;SDS011;10252;48.792;8.582;2022-08-24T17:24:40;4.03;;;2.20;;
20185;SDS011;10252;48.792;8.582;2022-08-24T17:29:41;2.97;;;2.08;;
20185;SDS011;10252;48.792;8.582;2022-08-24T17:34:43;4.47;;;2.22;;
20185;SDS011;10252;48.792;8.582;2022-08-24T17:39:44;3.05;;;2.00;;
20185;SDS011;10252;48.792;8.582;2022-08-24T17:44:45;2.50;;;2.10;;
20185;SDS011;10252;48.792;8.582;2022-08-24T17:49:47;2.08;;;1.88;;
20185;SDS011;10252;48.792;8.582;2022-08-24T17:54:48;2.13;;;1.80;;
20185;SDS011;10252;48.792;8.582;2022-08-24T17:59:51;8.98;;;2.40;;
20185;SDS011;10252;48.792;8.582;2022-08-24T18:04:52;2.05;;;1.85;;
20185;SDS011;10252;48.792;8.582;2022-08-24T18:09:54;3.65;;;1.85;;
20185;SDS011;10252;48.792;8.582;2022-08-24T18:14:57;4.20;;;2.17;;
20185;SDS011;10252;48.792;8.582;2022-08-24T18:19:59;2.50;;;1.90;;
20185;SDS011;10252;48.792;8.582;2022-08-24T18:25:00;3.30;;;1.75;;
20185;SDS011;10252;48.792;8.582;2022-08-24T18:30:04;1.92;;;1.83;;
20185;SDS011;10252;48.792;8.582;2022-08-24T18:35:05;3.03;;;2.00;;
20185;SDS011;10252;48.792;8.582;2022-08-24T18:40:07;2.50;;;2.30;;
20185;SDS011;10252;48.792;8.582;2022-08-24T18:45:09;2.05;;;1.90;;
20185;SDS011;10252;48.792;8.582;2022-08-24T18:50:11;2.50;;;2.22;;
20185;SDS011;10252;48.792;8.582;2022-08-24T18:55:13;2.20;;;1.80;;
20185;SDS011;10252;48.792;8.582;2022-08-24T19:00:15;2.97;;;2.15;;
20185;SDS011;10252;48.792;8.582;2022-08-24T19:05:17;2.58;;;2.30;;
20185;SDS011;10252;48.792;8.582;2022-08-24T19:10:24;2.67;;;2.10;;
20185;SDS011;10252;48.792;8.582;2022-08-24T19:15:25;1.83;;;1.73;;
20185;SDS011;10252;48.792;8.582;2022-08-24T19:20:26;2.80;;;2.20;;
20185;SDS011;10252;48.792;8.582;2022-08-24T19:25:28;3.55;;;1.98;;
20185;SDS011;10252;48.792;8.582;2022-08-24T19:30:29;2.25;;;2.05;;
20185;SDS011;10252;48.792;8.582;2022-08-24T19:35:31;2.30;;;2.10;;
20185;SDS011;10252;48.792;8.582;2022-08-24T19:40:33;2.50;;;2.30;;
20185;SDS011;10252;48.792;8.582;2022-08-24T19:45:34;3.80;;;2.70;;
20185;SDS011;10252;48.792;8.582;2022-08-24T19:50:54;3.78;;;3.28;;
20185;SDS011;10252;48.792;8.582;2022-08-24T19:55:55;3.78;;;3.47;;
20185;SDS011;10252;48.792;8.582;2022-08-24T20:01:04;3.20;;;2.58;;
20185;SDS011;10252;48.792;8.582;2022-08-24T20:06:08;2.55;;;2.33;;
20185;SDS011;10252;48.792;8.582;2022-08-24T20:11:10;2.85;;;2.55;;
20185;SDS011;10252;48.792;8.582;2022-08-24T20:16:11;3.03;;;2.78;;
20185;SDS011;10252;48.792;8.582;2022-08-24T20:21:13;3.20;;;2.75;;
20185;SDS011;10252;48.792;8.582;2022-08-24T20:26:15;4.03;;;3.00;;
20185;SDS011;10252;48.792;8.582;2022-08-24T20:31:16;3.03;;;2.72;;
20185;SDS011;10252;48.792;8.582;2022-08-24T20:36:28;3.30;;;3.00;;
20185;SDS011;10252;48.792;8.582;2022-08-24T20:41:30;2.67;;;2.47;;
20185;SDS011;10252;48.792;8.582;2022-08-24T20:46:31;3.20;;;2.58;;
20185;SDS011;10252;48.792;8.582;2022-08-24T20:51:32;3.30;;;3.00;;
20185;SDS011;10252;48.792;8.582;2022-08-24T20:56:35;3.95;;;2.90;;
20185;SDS011;10252;48.792;8.582;2022-08-24T21:01:38;3.60;;;3.30;;
20185;SDS011;10252;48.792;8.582;2022-08-24T21:06:42;4.38;;;2.58;;
20185;SDS011;10252;48.792;8.582;2022-08-24T21:11:43;5.18;;;2.65;;
20185;SDS011;10252;48.792;8.582;2022-08-24T21:16:45;3.22;;;2.88;;
20185;SDS011;10252;48.792;8.582;2022-08-24T21:21:46;3.10;;;2.80;;
20185;SDS011;10252;48.792;8.582;2022-08-24T21:26:47;3.10;;;2.80;;
20185;SDS011;10252;48.792;8.582;2022-08-24T21:31:49;3.95;;;3.22;;
20185;SDS011;10252;48.792;8.582;2022-08-24T21:37:12;3.22;;;2.92;;
20185;SDS011;10252;48.792;8.582;2022-08-24T21:42:14;4.53;;;3.08;;
20185;SDS011;10252;48.792;8.582;2022-08-24T21:47:16;6.28;;;3.97;;
20185;SDS011;10252;48.792;8.582;2022-08-24T21:52:17;3.55;;;3.25;;
20185;SDS011;10252;48.792;8.582;2022-08-24T21:57:18;3.38;;;3.05;;
20185;SDS011;10252;48.792;8.582;2022-08-24T22:02:19;4.03;;;2.92;;
20185;SDS011;10252;48.792;8.582;2022-08-24T22:07:21;3.50;;;3.20;;
20185;SDS011;10252;48.792;8.582;2022-08-24T22:12:22;3.20;;;2.90;;
20185;SDS011;10252;48.792;8.582;2022-08-24T22:17:24;3.33;;;3.00;;
20185;SDS011;10252;48.792;8.582;2022-08-24T22:22:25;4.28;;;3.25;;
20185;SDS011;10252;48.792;8.582;2022-08-24T22:27:26;5.13;;;3.10;;
20185;SDS011;10252;48.792;8.582;2022-08-24T22:32:27;4.05;;;3.53;;
20185;SDS011;10252;48.792;8.582;2022-08-24T22:37:28;7.72;;;3.50;;
20185;SDS011;10252;48.792;8.582;2022-08-24T22:42:29;3.83;;;3.47;;
20185;SDS011;10252;48.792;8.582;2022-08-24T22:47:30;3.35;;;3.05;;
20185;SDS011;10252;48.792;8.582;2022-08-24T22:52:31;3.90;;;3.50;;
20185;SDS011;10252;48.792;8.582;2022-08-24T22:57:33;5.85;;;3.63;;
20185;SDS011;10252;48.792;8.582;2022-08-24T23:02:34;5.03;;;3.67;;
20185;SDS011;10252;48.792;8.582;2022-08-24T23:07:35;3.70;;;3.40;;
20185;SDS011;10252;48.792;8.582;2022-08-24T23:12:36;5.00;;;3.53;;
20185;SDS011;10252;48.792;8.582;2022-08-24T23:17:37;4.78;;;3.70;;
20185;SDS011;10252;48.792;8.582;2022-08-24T23:22:39;3.72;;;3.40;;
20185;SDS011;10252;48.792;8.582;2022-08-24T23:27:40;3.47;;;3.13;;
20185;SDS011;10252;48.792;8.582;2022-08-24T23:32:42;4.20;;;3.80;;
20185;SDS011;10252;48.792;8.582;2022-08-24T23:37:43;5.10;;;3.75;;
20185;SDS011;10252;48.792;8.582;2022-08-24T23:42:44;3.92;;;3.60;;
20185;SDS011;10252;48.792;8.582;2022-08-24T23:47:45;3.75;;;3.45;;
20185;SDS011;10252;48.792;8.582;2022-08-24T23:52:46;3.83;;;3.53;;
20185;SDS011;10252;48.792;8.582;2022-08-24T23:57:48;3.75;;;3.45;;
